Time;durP1;ratioP1;P1;durP2;ratioP2;P2;SDS_P1;SDS_P2;PMS_P1;PMS_P2;Temp;Humidity;BMP_temperature;BMP_pressure;BME280_temperature;BME280_humidity;BME280_pressure;Samples;Min_cycle;Max_cycle;Signal;HPM_P1;HPM_P2
2022/12/20 00:01:22;;;;;;;21.03;12.20;;;;;;;0.52;100.00;101784.47;5156276;27;20326;-72
2022/12/20 00:03:52;;;;;;;24.27;13.27;;;;;;;0.43;100.00;101771.81;5156471;27;20110;-73
2022/12/20 00:06:18;;;;;;;27.13;14.33;;;;;;;0.44;100.00;101786.59;5156285;27;20264;-72
2022/12/20 00:08:44;;;;;;;26.47;13.73;;;;;;;0.40;100.00;101780.66;5172449;27;20259;-73
2022/12/20 00:11:10;;;;;;;24.40;13.20;;;;;;;0.41;100.00;101784.97;5177281;27;20252;-73
2022/12/20 00:13:36;;;;;;;24.70;13.50;;;;;;;0.40;100.00;101775.41;5176876;27;20269;-72
2022/12/20 00:16:13;;;;;;;29.37;14.60;;;;;;;0.39;100.00;101778.13;5167114;27;20046;-73
2022/12/20 00:18:40;;;;;;;26.20;15.90;;;;;;;0.28;100.00;101768.97;5156040;27;20257;-73
2022/12/20 00:21:10;;;;;;;27.27;15.27;;;;;;;0.27;100.00;101764.66;5156268;27;20295;-73
2022/12/20 00:23:36;;;;;;;26.57;14.83;;;;;;;0.22;100.00;101774.50;5137665;27;20279;-73
2022/12/20 00:26:04;;;;;;;25.77;15.87;;;;;;;0.14;100.00;101768.78;5155911;27;20263;-73
2022/12/20 00:28:31;;;;;;;28.95;15.98;;;;;;;0.03;100.00;101750.09;5156274;27;20272;-73
2022/12/20 00:30:57;;;;;;;34.10;15.60;;;;;;;-0.02;100.00;101752.06;5162254;27;20026;-73
2022/12/20 00:33:23;;;;;;;27.33;14.57;;;;;;;0.00;100.00;101752.88;5178407;27;20316;-73
2022/12/20 00:35:49;;;;;;;27.37;15.63;;;;;;;0.03;100.00;101744.88;5178515;27;20485;-74
2022/12/20 00:38:14;;;;;;;26.17;14.50;;;;;;;0.03;100.00;101750.09;5173513;27;20260;-76
2022/12/20 00:40:40;;;;;;;26.83;15.23;;;;;;;0.08;100.00;101757.75;5157891;27;20027;-74
2022/12/20 00:43:05;;;;;;;24.90;14.77;;;;;;;0.05;100.00;101757.88;5155613;27;20054;-74
2022/12/20 00:45:31;;;;;;;23.60;14.93;;;;;;;0.01;100.00;101754.56;5155805;27;20033;-74
2022/12/20 00:47:56;;;;;;;21.10;13.83;;;;;;;-0.03;100.00;101752.97;5155325;27;20430;-73
2022/12/20 00:50:22;;;;;;;22.93;12.77;;;;;;;-0.07;100.00;101754.91;5155255;27;20072;-74
2022/12/20 00:52:47;;;;;;;20.53;12.07;;;;;;;-0.10;100.00;101741.94;5155284;27;20118;-73
2022/12/20 00:55:13;;;;;;;18.40;10.77;;;;;;;-0.17;100.00;101737.06;5155411;27;20042;-73
2022/12/20 00:57:38;;;;;;;14.97;9.97;;;;;;;-0.28;100.00;101737.56;5155269;27;20476;-73
2022/12/20 01:00:05;;;;;;;19.63;11.00;;;;;;;-0.34;100.00;101738.66;5154982;27;20022;-73
2022/12/20 01:02:31;;;;;;;16.70;10.03;;;;;;;-0.44;100.00;101723.47;5136693;27;20019;-73
2022/12/20 01:04:57;;;;;;;14.87;9.77;;;;;;;-0.34;100.00;101733.44;5154924;27;20331;-73
2022/12/20 01:07:23;;;;;;;17.87;9.90;;;;;;;-0.38;100.00;101731.88;5154941;27;20026;-73
2022/12/20 01:09:49;;;;;;;18.63;9.63;;;;;;;-0.35;100.00;101731.72;5154960;27;20023;-73
2022/12/20 01:12:15;;;;;;;15.57;10.00;;;;;;;-0.45;100.00;101712.13;5154960;27;20767;-73
2022/12/20 01:14:40;;;;;;;16.87;10.83;;;;;;;-0.44;100.00;101719.06;5154953;27;20280;-73
2022/12/20 01:17:06;;;;;;;20.50;10.20;;;;;;;-0.50;100.00;101714.13;5155492;27;20152;-72
2022/12/20 01:19:32;;;;;;;15.57;9.80;;;;;;;-0.48;100.00;101711.44;5154457;27;20031;-73
2022/12/20 01:22:01;;;;;;;16.50;9.83;;;;;;;-0.45;100.00;101695.59;5154204;27;20046;-74
2022/12/20 01:24:26;;;;;;;18.15;9.23;;;;;;;-0.48;98.44;101695.72;5154425;27;20062;-73
2022/12/20 01:26:52;;;;;;;17.47;10.53;;;;;;;-0.52;98.21;101689.78;5154711;27;20063;-74
2022/12/20 01:29:18;;;;;;;15.63;9.40;;;;;;;-0.54;98.08;101686.41;5154204;27;20494;-74
2022/12/20 01:31:44;;;;;;;17.07;10.53;;;;;;;-0.55;99.20;101686.47;5154618;27;20287;-73
2022/12/20 01:34:09;;;;;;;19.93;10.67;;;;;;;-0.45;98.80;101696.44;5154332;27;20114;-74
2022/12/20 01:36:38;;;;;;;22.50;10.33;;;;;;;-0.57;97.81;101702.22;5154210;27;20119;-73
2022/12/20 01:39:15;;;;;;;16.58;9.70;;;;;;;-0.62;98.11;101691.09;5154177;27;20032;-73
2022/12/20 01:41:43;;;;;;;23.10;10.20;;;;;;;-0.66;97.61;101690.38;5154054;27;20030;-73
2022/12/20 01:44:18;;;;;;;15.32;10.02;;;;;;;-0.62;97.95;101688.47;5154444;27;20722;-72
2022/12/20 01:46:45;;;;;;;17.17;9.57;;;;;;;-0.62;97.56;101691.09;5154075;27;20034;-73
2022/12/20 01:49:49;;;;;;;20.37;10.77;;;;;;;-0.73;96.08;101685.50;5153971;27;21161;-74
2022/12/20 01:52:24;;;;;;;19.10;10.10;;;;;;;-0.78;95.59;101687.47;5110787;28;20262;-72
2022/12/20 01:54:59;;;;;;;20.40;10.10;;;;;;;-0.71;96.15;101686.28;5147951;27;20358;-73
2022/12/20 01:57:31;;;;;;;17.40;9.87;;;;;;;-0.73;95.53;101681.13;5154183;27;20268;-74
2022/12/20 01:59:57;;;;;;;18.50;10.90;;;;;;;-0.72;96.50;101677.59;5135570;27;20746;-73
2022/12/20 02:02:23;;;;;;;16.97;9.57;;;;;;;-0.70;95.94;101690.59;5154072;27;20641;-73
2022/12/20 02:04:49;;;;;;;21.87;11.07;;;;;;;-0.79;95.98;101691.00;5153829;27;20312;-73
2022/12/20 02:07:24;;;;;;;17.87;10.10;;;;;;;-1.15;95.81;101647.25;5135598;27;20509;-73
2022/12/20 02:09:51;;;;;;;20.30;11.37;;;;;;;-0.93;95.92;101684.59;5153708;27;20025;-74
2022/12/20 02:12:21;;;;;;;21.10;12.37;;;;;;;-0.92;96.00;101667.16;5154215;27;20263;-73
2022/12/20 02:15:05;;;;;;;18.57;10.97;;;;;;;-0.90;94.82;101677.53;5153960;27;20291;-74
2022/12/20 02:17:55;;;;;;;17.00;10.60;;;;;;;-1.09;94.66;101672.28;5153741;27;20262;-74
2022/12/20 02:20:43;;;;;;;19.00;10.23;;;;;;;-1.22;94.88;101671.94;5135129;27;20291;-73
2022/12/20 02:23:30;;;;;;;20.30;10.47;;;;;;;-1.19;95.11;101671.78;5153708;27;20754;-74
2022/12/20 02:26:11;;;;;;;18.43;10.67;;;;;;;-1.17;95.56;101664.75;5153778;27;20249;-73
2022/12/20 02:29:07;;;;;;;19.60;10.03;;;;;;;-1.23;94.11;101669.38;5153651;27;20256;-73
2022/12/20 02:31:49;;;;;;;19.40;10.87;;;;;;;-1.30;93.88;101663.56;5153790;27;20279;-74
2022/12/20 02:34:16;;;;;;;22.73;11.33;;;;;;;-1.49;94.32;101649.56;5153940;27;20317;-74
2022/12/20 02:36:41;;;;;;;19.07;10.17;;;;;;;-1.43;94.93;101667.63;5153708;27;20259;-73
2022/12/20 02:39:11;;;;;;;17.90;9.83;;;;;;;-1.42;94.04;101651.88;5153599;27;20257;-74
2022/12/20 02:41:45;;;;;;;19.93;11.53;;;;;;;-1.45;93.36;101643.31;5135518;27;20087;-73
2022/12/20 02:47:04;;;;;;;19.77;10.65;;;;;;;-1.39;93.71;101635.22;5157665;27;20256;-73
2022/12/20 02:49:33;;;;;;;16.77;10.03;;;;;;;-1.40;93.44;101646.59;5157670;27;20026;-73
2022/12/20 02:52:01;;;;;;;18.70;11.27;;;;;;;-1.37;93.08;101638.63;5157711;27;20248;-73
2022/12/20 02:54:28;;;;;;;22.10;12.48;;;;;;;-1.39;92.40;101643.91;5157658;27;20256;-73
2022/12/20 02:56:59;;;;;;;20.27;11.50;;;;;;;-1.42;92.75;101622.28;5157498;27;20043;-73
2022/12/20 02:59:29;;;;;;;18.73;10.63;;;;;;;-1.27;92.04;101632.09;5157449;27;20603;-74
2022/12/20 03:01:56;;;;;;;20.40;10.50;;;;;;;-1.34;91.69;101623.66;5157207;27;20282;-72
2022/12/20 03:04:25;;;;;;;20.90;11.87;;;;;;;-1.28;91.45;101625.16;5157424;27;20268;-74
2022/12/20 03:07:04;;;;;;;25.37;12.13;;;;;;;-1.27;92.26;101617.25;5157415;27;20306;-73
2022/12/20 03:09:32;;;;;;;19.20;12.20;;;;;;;-1.32;91.98;101602.69;5157540;27;20274;-74
2022/12/20 03:11:58;;;;;;;20.43;11.00;;;;;;;-1.28;92.19;101606.88;5157193;27;20259;-73
2022/12/20 03:14:23;;;;;;;21.93;11.97;;;;;;;-1.22;91.83;101616.19;5156851;27;20348;-74
2022/12/20 03:16:49;;;;;;;21.40;11.20;;;;;;;-1.31;91.65;101610.47;5157297;27;20252;-73
2022/12/20 03:19:15;;;;;;;22.50;11.87;;;;;;;-1.39;91.88;101614.31;5157362;27;20050;-73
2022/12/20 03:21:43;;;;;;;20.27;10.17;;;;;;;-1.48;90.63;101607.72;5157061;27;20043;-73
2022/12/20 03:24:10;;;;;;;21.30;11.60;;;;;;;-1.63;91.04;101613.59;5157034;27;20271;-75
2022/12/20 03:26:36;;;;;;;18.33;9.57;;;;;;;-1.68;91.31;101608.56;5157359;27;20268;-74
2022/12/20 03:29:02;;;;;;;24.93;11.73;;;;;;;-1.80;91.36;101601.22;5157609;27;20256;-74
2022/12/20 03:31:28;;;;;;;19.80;11.33;;;;;;;-1.76;91.50;101602.78;5157174;27;20271;-73
2022/12/20 03:33:54;;;;;;;19.93;12.10;;;;;;;-1.77;91.50;101600.25;5157158;27;20260;-74
2022/12/20 03:36:22;;;;;;;23.87;11.30;;;;;;;-1.92;92.72;101592.13;5157022;27;20022;-73
2022/12/20 03:38:49;;;;;;;19.35;10.95;;;;;;;-1.88;93.26;101587.63;5156912;27;20127;-74
2022/12/20 03:41:14;;;;;;;24.73;12.60;;;;;;;-1.90;93.45;101579.03;5156808;27;20030;-73
2022/12/20 03:43:40;;;;;;;20.43;12.30;;;;;;;-2.05;92.60;101569.19;5156661;27;20259;-73
2022/12/20 03:46:06;;;;;;;25.97;13.37;;;;;;;-2.03;93.44;101572.59;5156725;27;20025;-73
2022/12/20 03:48:31;;;;;;;21.97;12.60;;;;;;;-2.12;94.70;101559.91;5156668;27;20022;-72
2022/12/20 03:50:57;;;;;;;28.93;15.60;;;;;;;-2.12;93.75;101552.09;5138095;27;20068;-73
2022/12/20 03:53:22;;;;;;;22.73;13.10;;;;;;;-2.16;93.22;101560.97;5156063;27;20386;-73
2022/12/20 03:55:47;;;;;;;25.90;13.80;;;;;;;-2.12;94.41;101555.56;5159302;27;20019;-73
2022/12/20 03:58:13;;;;;;;30.77;12.63;;;;;;;-2.08;93.71;101554.50;5160039;27;20110;-74
2022/12/20 04:00:39;;;;;;;26.67;13.17;;;;;;;-1.99;93.99;101561.13;5158392;27;20058;-74
2022/12/20 04:03:04;;;;;;;21.67;11.90;;;;;;;-1.87;94.65;101550.19;5156560;27;20512;-73
2022/12/20 04:05:29;;;;;;;25.70;14.77;;;;;;;-1.76;93.09;101547.94;5156329;27;20033;-75
2022/12/20 04:07:55;;;;;;;27.50;12.43;;;;;;;-1.80;92.19;101543.78;5156307;27;20414;-73
2022/12/20 04:10:20;;;;;;;25.83;12.70;;;;;;;-1.78;92.35;101552.38;5156851;27;20027;-73
2022/12/20 04:12:46;;;;;;;20.97;11.57;;;;;;;-1.95;91.46;101520.94;5156698;27;20117;-73
2022/12/20 04:15:11;;;;;;;28.77;13.57;;;;;;;-1.82;91.72;101544.75;5156946;27;20035;-74
2022/12/20 04:17:37;;;;;;;24.20;13.43;;;;;;;-1.87;91.39;101524.06;5158700;27;20393;-75
2022/12/20 04:20:17;;;;;;;22.80;12.20;;;;;;;-1.87;91.22;101527.53;5158913;27;20038;-73
2022/12/20 04:22:46;;;;;;;24.47;12.57;;;;;;;-1.88;90.79;101532.81;5157234;27;20056;-73
2022/12/20 04:25:12;;;;;;;23.38;11.75;;;;;;;-2.12;91.28;101510.34;5155935;27;20271;-72
2022/12/20 04:27:39;;;;;;;26.60;14.33;;;;;;;-2.03;92.08;101523.00;5155962;27;20037;-73
2022/12/20 04:30:05;;;;;;;24.17;12.77;;;;;;;-2.02;91.14;101515.13;5137213;27;20256;-73
2022/12/20 04:32:32;;;;;;;26.23;13.57;;;;;;;-1.93;91.79;101521.72;5155954;27;20031;-74
2022/12/20 04:34:57;;;;;;;24.53;13.77;;;;;;;-1.93;91.38;101519.09;5155606;27;20244;-73
2022/12/20 04:37:22;;;;;;;26.03;12.67;;;;;;;-1.91;91.12;101520.75;5120653;27;20050;-74
2022/12/20 04:39:48;;;;;;;25.63;13.37;;;;;;;-1.89;91.44;101523.28;5157338;27;20484;-73
2022/12/20 04:42:13;;;;;;;24.30;13.73;;;;;;;-1.93;91.04;101508.66;5157192;27;20026;-72
2022/12/20 04:44:39;;;;;;;23.57;12.40;;;;;;;-1.79;91.11;101519.34;5157204;27;20049;-72
2022/12/20 04:47:05;;;;;;;24.03;14.57;;;;;;;-1.78;90.53;101521.06;5156977;27;20555;-74
2022/12/20 04:49:30;;;;;;;35.00;15.17;;;;;;;-1.89;89.40;101510.22;5156126;27;20038;-74
2022/12/20 04:53:46;;;;;;;27.80;15.23;;;;;;;-1.98;90.09;101513.25;5155948;27;20037;-73
2022/12/20 04:54:41;;;;;;;28.27;14.73;;;;;;;-2.01;89.24;101502.94;5155501;27;20033;-74
2022/12/20 04:57:08;;;;;;;26.90;14.27;;;;;;;-2.13;90.73;101499.06;5155223;27;20335;-74
2022/12/20 04:59:34;;;;;;;27.67;13.17;;;;;;;-2.19;89.15;101499.31;5155539;27;20038;-74
2022/12/20 05:02:00;;;;;;;27.57;13.40;;;;;;;-2.39;89.40;101494.91;5155675;27;20284;-74
2022/12/20 05:04:26;;;;;;;26.63;14.40;;;;;;;-2.44;89.34;101503.81;5159732;27;20037;-73
2022/12/20 05:06:52;;;;;;;22.27;12.77;;;;;;;-2.49;89.72;101501.41;5174129;27;20248;-73
2022/12/20 05:09:17;;;;;;;20.67;12.13;;;;;;;-2.40;89.24;101506.25;5172519;27;20023;-73
2022/12/20 05:11:43;;;;;;;20.43;12.63;;;;;;;-2.38;88.78;101500.97;5174436;27;20050;-73
2022/12/20 05:14:08;;;;;;;26.53;14.03;;;;;;;-2.35;89.83;101499.06;5157629;27;20079;-73
2022/12/20 05:16:34;;;;;;;27.47;12.90;;;;;;;-2.32;89.73;101498.94;5156797;27;20586;-74
2022/12/20 05:19:02;;;;;;;23.93;13.87;;;;;;;-2.36;88.99;101492.16;5158282;27;20026;-74
2022/12/20 05:26:58;;;;;;;27.30;13.83;;;;;;;-2.63;89.10;101488.06;5179728;27;20328;-72
2022/12/20 05:29:23;;;;;;;24.30;13.67;;;;;;;-2.67;89.73;101495.16;5160082;27;20288;-74
2022/12/20 05:31:49;;;;;;;27.73;14.27;;;;;;;-2.70;90.38;101486.59;5160123;27;20022;-74
2022/12/20 05:34:15;;;;;;;28.40;14.80;;;;;;;-2.61;90.16;101492.28;5179635;27;20046;-74
2022/12/20 05:36:41;;;;;;;28.57;13.37;;;;;;;-2.62;90.02;101490.59;5170952;27;20023;-74
2022/12/20 05:39:06;;;;;;;29.43;15.57;;;;;;;-2.73;89.32;101492.78;5154958;27;20109;-73
2022/12/20 05:41:32;;;;;;;26.60;14.73;;;;;;;-2.82;90.49;101491.41;5155203;27;20023;-73
2022/12/20 05:43:57;;;;;;;27.40;15.93;;;;;;;-2.97;90.29;101493.72;5154589;27;20537;-75
2022/12/20 05:46:23;;;;;;;28.73;15.67;;;;;;;-3.08;90.53;101486.34;5154249;27;20033;-74
2022/12/20 05:48:49;;;;;;;43.80;20.90;;;;;;;-3.17;89.55;101482.31;5154951;27;20027;-73
2022/12/20 05:51:17;;;;;;;34.00;16.83;;;;;;;-3.29;90.88;101480.16;5158346;27;20051;-74
2022/12/20 05:53:43;;;;;;;;;;;;;;;-3.21;90.94;101478.09;5138094;27;20461;-72
2022/12/20 05:56:09;;;;;;;39.57;20.63;;;;;;;-3.27;90.38;101480.09;5154521;27;19914;-75
2022/12/20 05:58:34;;;;;;;33.57;16.10;;;;;;;-3.38;89.64;101472.69;5154874;27;20018;-73
2022/12/20 06:01:01;;;;;;;32.77;15.77;;;;;;;-3.41;90.55;101478.03;5154394;27;20030;-75
2022/12/20 06:03:27;;;;;;;27.10;15.50;;;;;;;-3.46;87.51;101482.56;5154508;27;20155;-74
2022/12/20 06:05:52;;;;;;;31.60;16.83;;;;;;;-3.58;87.59;101476.00;5154963;27;20022;-73
2022/12/20 06:08:20;;;;;;;32.27;15.00;;;;;;;-3.81;86.46;101448.19;5152967;27;20334;-72
2022/12/20 06:10:54;;;;;;;27.80;14.13;;;;;;;-3.83;86.52;101467.38;5154715;27;20026;-78
2022/12/20 06:13:20;;;;;;;26.98;13.63;;;;;;;-3.91;86.53;101456.38;5136340;27;20385;-75
2022/12/20 06:15:46;;;;;;;32.07;14.73;;;;;;;-3.84;85.85;101473.47;5154993;27;20030;-73
2022/12/20 06:18:12;;;;;;;27.63;14.07;;;;;;;-3.85;86.08;101467.44;5155195;27;20050;-75
2022/12/20 06:20:39;;;;;;;30.10;15.23;;;;;;;-3.95;86.47;101460.00;5154387;27;20046;-74
2022/12/20 06:23:09;;;;;;;27.42;14.45;;;;;;;-4.24;86.67;101433.25;5155379;27;20031;-73
2022/12/20 06:25:34;;;;;;;30.73;15.80;;;;;;;-3.96;87.79;101471.31;5156834;27;20029;-73
2022/12/20 06:28:06;;;;;;;35.17;17.97;;;;;;;-3.88;86.64;101472.75;5165579;27;20110;-74
2022/12/20 06:30:35;;;;;;;28.92;16.40;;;;;;;-3.86;87.05;101464.88;5174155;27;20050;-71
2022/12/20 06:33:01;;;;;;;33.15;15.65;;;;;;;-3.78;87.16;101475.88;5151727;27;20027;-73
2022/12/20 06:35:34;;;;;;;31.05;15.90;;;;;;;-3.90;87.06;101469.34;5152376;27;20035;-72
2022/12/20 06:38:05;;;;;;;29.20;14.50;;;;;;;-3.97;87.63;101460.06;5153686;27;20027;-72
2022/12/20 06:40:31;;;;;;;30.33;16.02;;;;;;;-4.03;86.59;101449.88;5172529;27;20117;-71
2022/12/20 06:42:56;;;;;;;30.67;16.37;;;;;;;-4.14;86.86;101444.16;5152222;27;20034;-75
2022/12/20 06:45:22;;;;;;;29.43;15.20;;;;;;;-4.08;87.09;101468.22;5172936;27;20382;-73
2022/12/20 06:48:10;;;;;;;28.57;15.43;;;;;;;-4.19;86.93;101465.13;5172551;27;20079;-72
2022/12/20 06:50:37;;;;;;;33.20;16.73;;;;;;;-4.39;85.96;101452.78;5174329;27;20027;-76
2022/12/20 06:53:02;;;;;;;26.75;15.43;;;;;;;-4.34;85.79;101478.63;5153917;27;20014;-76
2022/12/20 06:55:32;;;;;;;37.50;18.53;;;;;;;-4.31;88.40;101494.16;5148559;27;20356;-76
2022/12/20 06:57:57;;;;;;;31.17;16.45;;;;;;;-4.45;86.33;101481.59;5135245;27;20030;-73
2022/12/20 07:00:23;;;;;;;37.93;16.97;;;;;;;-4.44;86.08;101487.66;5153645;27;20026;-73
2022/12/20 07:02:48;;;;;;;31.57;16.03;;;;;;;-4.61;86.79;101484.75;5135070;27;20099;-73
2022/12/20 07:05:14;;;;;;;30.47;14.10;;;;;;;-4.69;87.48;101483.22;5153819;27;20026;-73
2022/12/20 07:07:40;;;;;;;33.40;15.50;;;;;;;-4.65;87.56;101483.97;5153513;27;20037;-70
2022/12/20 07:10:06;;;;;;;30.87;14.67;;;;;;;-4.59;87.10;101488.16;5150238;27;20023;-72
2022/12/20 07:12:32;;;;;;;31.42;15.07;;;;;;;-4.54;86.30;101492.31;5133090;27;20043;-73
2022/12/20 07:14:58;;;;;;;27.70;15.38;;;;;;;-4.47;85.87;101493.81;5132768;27;20110;-72
2022/12/20 07:17:24;;;;;;;35.70;17.30;;;;;;;-4.48;85.22;101494.69;5132743;27;20117;-72
2022/12/20 07:19:51;;;;;;;30.30;14.77;;;;;;;-4.50;85.15;101495.66;5149088;27;20241;-71
2022/12/20 07:22:16;;;;;;;29.33;16.15;;;;;;;-4.68;84.55;101478.88;5152515;28;20039;-71
2022/12/20 07:24:42;;;;;;;53.27;24.37;;;;;;;-4.80;84.24;101461.94;5114588;28;20481;-75
2022/12/20 07:27:09;;;;;;;39.67;20.30;;;;;;;-4.79;83.71;101481.81;5133740;27;20027;-74
2022/12/20 07:29:35;;;;;;;44.03;20.90;;;;;;;-4.69;84.97;101485.81;5144913;27;20023;-71
2022/12/20 07:32:02;;;;;;;39.53;19.92;;;;;;;-4.57;84.66;101489.81;5138684;27;20027;-72
2022/12/20 07:34:27;;;;;;;31.88;16.55;;;;;;;-4.55;83.05;101497.56;5156589;27;20483;-73
2022/12/20 07:36:52;;;;;;;34.77;17.30;;;;;;;-4.65;83.05;101488.31;5137895;27;20129;-71
2022/12/20 07:39:18;;;;;;;32.90;13.93;;;;;;;-4.83;84.16;101487.16;5156465;27;20038;-70
2022/12/20 07:41:43;;;;;;;31.43;15.90;;;;;;;-5.07;84.98;101487.00;5156863;27;20071;-71
2022/12/20 07:44:09;;;;;;;31.10;16.67;;;;;;;-5.09;84.46;101487.94;5120991;27;20027;-72
2022/12/20 07:46:34;;;;;;;31.07;15.13;;;;;;;-5.00;85.74;101482.47;5138309;27;20052;-72
2022/12/20 07:49:00;;;;;;;35.57;17.23;;;;;;;-4.99;84.03;101471.19;5156677;27;20117;-71
2022/12/20 07:51:37;;;;;;;30.33;16.93;;;;;;;-4.87;83.73;101476.03;5156346;27;20454;-69
2022/12/20 07:54:11;;;;;;;31.02;16.80;;;;;;;-4.82;83.27;101470.69;5157127;27;20082;-72
2022/12/20 07:56:41;;;;;;;36.85;17.88;;;;;;;-4.83;84.20;101467.22;5157056;27;20069;-71
2022/12/20 07:59:10;;;;;;;30.30;16.83;;;;;;;-4.77;84.03;101455.78;5159324;27;20030;-73
2022/12/20 08:01:36;;;;;;;36.00;16.45;;;;;;;-4.75;84.54;101446.19;5158519;27;20081;-72
2022/12/20 08:04:11;;;;;;;50.43;22.10;;;;;;;-4.92;83.22;101438.91;5138929;27;20038;-70
2022/12/20 08:06:39;;;;;;;34.50;16.67;;;;;;;-5.08;83.37;101441.16;5157683;27;20338;-72
2022/12/20 08:09:05;;;;;;;32.63;15.38;;;;;;;-5.07;82.86;101452.38;5158071;27;20446;-72
2022/12/20 08:11:34;;;;;;;28.30;14.52;;;;;;;-5.11;83.06;101432.59;5161259;27;20026;-72
2022/12/20 08:14:00;;;;;;;31.02;14.55;;;;;;;-5.11;82.28;101436.06;5149231;27;20030;-70
2022/12/20 08:16:25;;;;;;;29.48;15.00;;;;;;;-5.17;82.76;101441.44;5143686;27;20070;-76
2022/12/20 08:18:51;;;;;;;33.70;14.87;;;;;;;-5.24;83.14;101442.50;5138597;27;20366;-74
2022/12/20 08:21:17;;;;;;;29.33;15.63;;;;;;;-5.41;84.77;101430.03;5155934;27;20474;-75
2022/12/20 08:23:44;;;;;;;33.78;16.08;;;;;;;-5.26;83.78;101443.44;5155932;27;20038;-76
2022/12/20 08:26:09;;;;;;;30.73;15.53;;;;;;;-5.34;83.23;101421.16;5155949;27;20023;-77
2022/12/20 08:28:35;;;;;;;30.17;16.00;;;;;;;-5.24;83.57;101420.88;5137144;27;20439;-75
2022/12/20 08:31:06;;;;;;;34.13;15.77;;;;;;;-5.08;82.17;101451.53;5155277;27;20056;-76
2022/12/20 08:33:33;;;;;;;28.38;14.52;;;;;;;-5.22;82.75;101453.69;5156238;27;20113;-74
2022/12/20 08:36:24;;;;;;;35.17;16.60;;;;;;;-5.42;83.40;101428.34;5156227;27;20042;-75
2022/12/20 08:38:50;;;;;;;30.07;17.53;;;;;;;-5.27;83.61;101452.97;5156079;27;20031;-73
2022/12/20 08:41:15;;;;;;;34.47;17.00;;;;;;;-5.25;82.37;101450.34;5157083;27;20036;-73
2022/12/20 08:43:41;;;;;;;31.60;15.73;;;;;;;-5.30;82.13;101419.31;5143108;27;20046;-75
2022/12/20 08:46:09;;;;;;;30.38;15.23;;;;;;;-5.00;81.59;101446.97;5135584;27;20037;-76
2022/12/20 08:52:07;;;;;;;31.15;15.88;;;;;;;-5.13;79.19;101404.09;5089786;27;20473;-77
2022/12/20 08:54:33;;;;;;;27.70;15.98;;;;;;;-5.10;79.64;101413.53;5133772;27;20507;-76
2022/12/20 09:00:15;;;;;;;35.38;15.27;;;;;;;-5.39;79.21;101391.91;5097723;27;20301;-76
2022/12/20 09:02:41;;;;;;;32.97;16.25;;;;;;;-5.38;78.79;101409.16;5118776;27;20023;-77
2022/12/20 09:05:18;;;;;;;29.58;15.80;;;;;;;-5.27;79.95;101455.56;5148224;27;20079;-76
2022/12/20 09:15:03;;;;;;;39.00;16.73;;;;;;;-5.04;80.33;101424.56;5155719;27;20083;-74
2022/12/20 09:24:46;;;;;;;29.63;16.00;;;;;;;-4.98;80.69;101410.53;5597170;22;20078;-79
2022/12/20 09:27:43;;;;;;;33.13;16.38;;;;;;;-5.25;79.59;101356.84;4975493;28;20145;-75
2022/12/20 09:30:10;;;;;;;32.50;16.92;;;;;;;-5.19;78.97;101349.75;4996914;28;20034;-76
2022/12/20 09:32:36;;;;;;;38.40;16.73;;;;;;;-4.86;79.87;101397.19;5016835;28;20025;-74
2022/12/20 09:35:03;;;;;;;38.15;17.67;;;;;;;-5.02;79.38;101367.38;5017426;28;20068;-71
2022/12/20 09:37:30;;;;;;;35.17;18.25;;;;;;;-4.91;78.00;101398.22;5014090;28;20430;-74
2022/12/20 09:40:31;;;;;;;33.55;17.33;;;;;;;-5.17;78.77;101392.09;5015615;28;20474;-78
2022/12/20 09:46:52;;;;;;;34.17;16.95;;;;;;;-5.45;79.96;101345.38;5014672;28;20044;-77
2022/12/20 09:53:05;;;;;;;31.75;17.65;;;;;;;-5.13;79.48;101383.31;5010922;28;20037;-76
2022/12/20 10:02:24;;;;;;;28.55;14.80;;;;;;;-5.14;77.62;101385.97;5012600;28;20029;-74
2022/12/20 10:04:54;;;;;;;32.05;17.13;;;;;;;-5.34;77.29;101374.44;4994801;28;20069;-78
2022/12/20 10:07:41;;;;;;;26.30;15.50;;;;;;;-5.28;79.52;101383.78;4994290;28;20049;-77
2022/12/20 10:10:18;;;;;;;29.25;14.50;;;;;;;-5.05;78.79;101381.31;5010682;28;20030;-75
2022/12/20 10:20:10;;;;;;;30.67;15.77;;;;;;;-5.13;77.38;101379.88;5013676;28;20049;-73
2022/12/20 10:23:22;;;;;;;36.78;15.98;;;;;;;-5.30;78.03;101382.97;4979761;28;20030;-73
2022/12/20 10:29:58;;;;;;;31.80;15.73;;;;;;;-5.54;78.63;101383.69;5019908;28;20048;-76
2022/12/20 10:36:37;;;;;;;43.42;20.20;;;;;;;-5.23;79.21;101379.28;5013353;28;20524;-75
2022/12/20 10:39:08;;;;;;;32.45;16.08;;;;;;;-5.23;77.52;101381.88;4996358;28;20709;-72
2022/12/20 10:41:41;;;;;;;36.45;16.27;;;;;;;-5.30;78.12;101380.38;5012784;28;20041;-73
2022/12/20 10:44:14;;;;;;;31.05;17.23;;;;;;;-5.26;78.54;101375.94;4995425;28;20058;-73
2022/12/20 10:46:47;;;;;;;30.02;16.58;;;;;;;-5.14;78.03;101367.78;5012690;28;20029;-72
2022/12/20 10:49:32;;;;;;;33.17;16.33;;;;;;;-4.94;78.18;101362.78;4995520;28;20054;-71
2022/12/20 10:52:02;;;;;;;34.40;15.98;;;;;;;-4.94;77.21;101354.13;5012773;28;20382;-70
2022/12/20 10:54:36;;;;;;;25.83;14.98;;;;;;;-4.94;76.87;101356.72;5012576;28;20545;-76
2022/12/20 10:57:19;;;;;;;32.40;16.40;;;;;;;-4.86;76.44;101366.00;5012686;28;20025;-73
2022/12/20 11:00:00;;;;;;;33.83;15.63;;;;;;;-4.97;77.10;101347.28;5012629;28;20022;-74
2022/12/20 11:02:38;;;;;;;31.17;15.00;;;;;;;-4.99;76.55;101343.91;5012597;28;20030;-73
2022/12/20 11:05:10;;;;;;;28.10;15.40;;;;;;;-4.98;76.19;101335.22;5017220;28;20034;-75
2022/12/20 11:07:38;;;;;;;32.03;15.98;;;;;;;-4.92;76.31;101335.00;5016176;28;20369;-71
2022/12/20 11:10:24;;;;;;;34.28;17.10;;;;;;;-4.92;75.33;101348.00;5016746;28;20057;-72
2022/12/20 11:12:55;;;;;;;34.85;16.20;;;;;;;-5.02;75.65;101323.22;4982122;28;20038;-72
2022/12/20 11:15:27;;;;;;;31.73;15.20;;;;;;;-4.97;75.48;101336.91;5015962;28;20389;-72
2022/12/20 11:17:59;;;;;;;31.88;16.33;;;;;;;-4.99;74.69;101341.31;4998253;28;20461;-73
2022/12/20 11:20:28;;;;;;;30.67;15.57;;;;;;;-5.26;73.66;101356.00;4998549;28;20049;-73
2022/12/20 11:23:21;;;;;;;25.85;13.60;;;;;;;-5.37;75.42;101355.50;5015748;28;20105;-73
2022/12/20 11:26:02;;;;;;;27.45;15.57;;;;;;;-5.38;75.24;101352.06;4998138;28;20136;-73
2022/12/20 11:28:44;;;;;;;28.08;14.70;;;;;;;-5.48;76.20;101355.84;4997892;28;20046;-71
2022/12/20 11:31:14;;;;;;;34.88;16.60;;;;;;;-5.52;76.51;101351.63;4998562;28;20097;-71
2022/12/20 11:34:07;;;;;;;35.33;16.13;;;;;;;-5.46;78.39;101356.66;5018116;28;20034;-73
2022/12/20 11:37:01;;;;;;;31.48;14.77;;;;;;;-5.41;77.00;101352.16;4999495;28;20041;-73
2022/12/20 11:39:44;;;;;;;;;;;;;;;-5.42;76.20;101360.00;5017405;28;20377;-73
2022/12/20 11:42:42;;;;;;;29.15;14.70;;;;;;;-5.42;77.29;101358.25;4988804;28;20071;-72
2022/12/20 11:45:19;;;;;;;23.33;13.05;;;;;;;-5.30;76.73;101357.84;4982176;28;20037;-72
2022/12/20 11:48:03;;;;;;;27.88;15.60;;;;;;;-5.46;76.33;101354.06;5000304;28;20053;-75
2022/12/20 11:50:50;;;;;;;32.42;15.82;;;;;;;-5.50;76.90;101352.41;5001771;28;20034;-75
2022/12/20 11:53:34;;;;;;;28.33;16.10;;;;;;;-5.55;77.73;101340.47;5002059;28;20061;-75
2022/12/20 11:56:07;;;;;;;27.90;17.90;;;;;;;-5.55;77.55;101332.69;4983322;28;20096;-73
2022/12/20 11:58:55;;;;;;;31.08;16.52;;;;;;;-5.46;77.81;101327.25;5015284;28;20581;-75
2022/12/20 12:01:38;;;;;;;30.70;15.13;;;;;;;-5.53;77.82;101330.91;5015120;28;20038;-76
2022/12/20 12:04:16;;;;;;;31.85;14.95;;;;;;;-5.64;78.12;101339.03;5015569;28;20116;-73
2022/12/20 12:06:52;;;;;;;30.08;15.30;;;;;;;-5.85;77.44;101327.53;5016700;28;20108;-73
2022/12/20 12:09:31;;;;;;;31.00;15.63;;;;;;;-5.85;79.14;101329.28;4997266;28;20433;-75
2022/12/20 12:12:11;;;;;;;28.40;15.18;;;;;;;-5.94;78.51;101323.50;4997192;28;20056;-75
2022/12/20 12:15:05;;;;;;;26.60;14.48;;;;;;;-6.00;80.02;101336.66;4998402;28;20064;-74
2022/12/20 12:17:51;;;;;;;30.50;16.60;;;;;;;-5.88;79.02;101334.56;4998585;28;20478;-74
2022/12/20 12:21:02;;;;;;;28.98;15.45;;;;;;;-5.95;79.22;101337.34;4998270;28;20030;-75
2022/12/20 12:23:40;;;;;;;30.85;15.30;;;;;;;-6.17;79.28;101343.19;4991025;28;20033;-77